createdAt,value
2022-12-28T00:00:21.344Z,23.58
2022-12-28T00:01:43.220Z,25.92
2022-12-28T00:03:05.032Z,24.33
2022-12-28T00:04:26.919Z,26.27
2022-12-28T00:05:48.896Z,23.10
2022-12-28T00:07:10.915Z,19.30
2022-12-28T00:08:33.386Z,22.08
2022-12-28T00:09:55.353Z,24.80
2022-12-28T00:11:28.397Z,28.67
2022-12-28T00:12:52.918Z,34.95
2022-12-28T00:14:14.859Z,42.75
2022-12-28T00:15:38.250Z,39.47
2022-12-28T00:17:00.152Z,39.80
2022-12-28T00:18:21.979Z,48.35
2022-12-28T00:19:44.137Z,56.88
2022-12-28T00:21:06.280Z,42.45
2022-12-28T00:22:28.528Z,34.80
2022-12-28T00:23:52.492Z,32.40
2022-12-28T00:25:14.485Z,40.03
2022-12-28T00:26:36.747Z,37.38
2022-12-28T00:27:58.612Z,28.67
2022-12-28T00:29:20.579Z,27.33
2022-12-28T00:30:42.383Z,33.78
2022-12-28T00:32:04.400Z,56.67
2022-12-28T00:33:26.000Z,34.35
2022-12-28T00:34:47.730Z,33.38
2022-12-28T00:36:12.807Z,39.25
2022-12-28T00:37:34.639Z,34.95
2022-12-28T00:38:59.347Z,31.17
2022-12-28T00:40:24.103Z,32.75
2022-12-28T00:41:46.575Z,32.95
2022-12-28T00:43:08.318Z,31.15
2022-12-28T00:44:30.110Z,30.00
2022-12-28T00:45:51.949Z,28.15
2022-12-28T00:47:13.997Z,25.67
2022-12-28T00:48:35.719Z,31.27
2022-12-28T00:49:57.715Z,31.15
2022-12-28T00:51:20.912Z,33.17
2022-12-28T00:52:42.627Z,33.40
2022-12-28T00:54:04.535Z,33.05
2022-12-28T00:55:26.293Z,32.80
2022-12-28T00:56:48.154Z,35.72
2022-12-28T00:58:10.437Z,32.38
2022-12-28T00:59:32.058Z,31.33
2022-12-28T01:00:54.844Z,32.47
2022-12-28T01:02:16.741Z,41.58
2022-12-28T01:03:38.329Z,33.08
2022-12-28T01:05:00.363Z,37.85
2022-12-28T01:06:22.487Z,36.33
2022-12-28T01:07:44.253Z,36.05
2022-12-28T01:09:06.437Z,37.63
2022-12-28T01:10:28.217Z,44.30
2022-12-28T01:11:52.103Z,42.65
2022-12-28T01:13:13.748Z,41.03
2022-12-28T01:14:35.755Z,48.63
2022-12-28T01:15:57.441Z,46.90
2022-12-28T01:17:19.246Z,47.25
2022-12-28T01:18:41.725Z,43.63
2022-12-28T01:20:03.972Z,50.83
2022-12-28T01:21:28.974Z,49.80
2022-12-28T01:22:50.798Z,52.05
2022-12-28T01:24:12.737Z,61.10
2022-12-28T01:25:34.977Z,65.72
2022-12-28T01:26:56.835Z,74.18
2022-12-28T01:28:18.864Z,99.30
2022-12-28T01:29:40.852Z,106.07
2022-12-28T01:31:17.478Z,124.47
2022-12-28T01:32:39.405Z,143.27
2022-12-28T01:34:02.978Z,134.70
2022-12-28T01:35:24.665Z,134.35
2022-12-28T01:36:47.179Z,139.10
2022-12-28T01:38:09.099Z,146.73
2022-12-28T01:39:31.678Z,146.73
2022-12-28T01:40:53.122Z,146.27
2022-12-28T01:42:20.025Z,129.68
2022-12-28T01:43:45.844Z,135.43
2022-12-28T01:45:21.055Z,122.10
2022-12-28T01:46:57.275Z,106.22
2022-12-28T01:48:25.325Z,101.15
2022-12-28T01:50:12.868Z,98.22
2022-12-28T01:51:46.883Z,91.90
2022-12-28T01:53:08.622Z,89.95
2022-12-28T01:54:44.208Z,85.97
2022-12-28T01:56:06.646Z,77.10
2022-12-28T01:57:36.220Z,83.53
2022-12-28T01:58:58.926Z,85.03
2022-12-28T02:00:20.819Z,76.00
2022-12-28T02:01:42.674Z,74.03
2022-12-28T02:03:15.291Z,71.00
2022-12-28T02:04:37.377Z,61.70
2022-12-28T02:06:01.968Z,61.42
2022-12-28T02:07:44.853Z,56.50
2022-12-28T02:09:29.405Z,51.92
2022-12-28T02:10:53.209Z,51.70
2022-12-28T02:12:17.162Z,51.55
2022-12-28T02:13:39.820Z,51.65
2022-12-28T02:15:03.237Z,49.20
2022-12-28T02:16:25.414Z,51.63
2022-12-28T02:17:47.186Z,54.28
2022-12-28T02:19:13.335Z,49.85
2022-12-28T02:21:14.891Z,51.03
2022-12-28T02:22:54.705Z,50.53
2022-12-28T02:24:44.015Z,49.50
2022-12-28T02:26:17.712Z,50.10
2022-12-28T02:28:08.358Z,48.67
2022-12-28T02:29:35.048Z,47.97
2022-12-28T02:31:07.266Z,52.58
2022-12-28T02:32:49.708Z,49.10
2022-12-28T02:34:33.907Z,48.65
2022-12-28T02:36:01.411Z,43.15
2022-12-28T02:37:34.738Z,44.22
2022-12-28T02:39:02.974Z,43.55
2022-12-28T02:40:34.138Z,52.15
2022-12-28T02:41:57.474Z,47.58
2022-12-28T02:43:19.326Z,49.28
2022-12-28T02:44:59.268Z,49.33
2022-12-28T02:46:43.808Z,59.20
2022-12-28T02:48:25.985Z,60.45
2022-12-28T02:50:08.004Z,56.17
2022-12-28T02:51:49.841Z,48.95
2022-12-28T02:53:46.335Z,46.30
2022-12-28T02:55:38.213Z,54.38
2022-12-28T02:57:28.822Z,47.85
2022-12-28T02:59:02.846Z,45.72
2022-12-28T03:00:32.381Z,43.65
2022-12-28T03:02:12.870Z,39.50
2022-12-28T03:03:42.579Z,51.85
2022-12-28T03:05:17.767Z,47.70
2022-12-28T03:07:55.067Z,45.03
2022-12-28T03:09:22.512Z,45.50
2022-12-28T03:10:52.322Z,36.17
2022-12-28T03:13:01.558Z,37.85
2022-12-28T03:14:41.506Z,37.20
2022-12-28T03:16:12.680Z,30.88
2022-12-28T03:17:57.142Z,24.85
2022-12-28T03:19:39.525Z,25.63
2022-12-28T03:21:26.987Z,33.47
2022-12-28T03:23:10.871Z,29.05
2022-12-28T03:24:54.158Z,31.90
2022-12-28T03:26:40.362Z,40.38
2022-12-28T03:28:24.614Z,42.72
2022-12-28T03:30:13.860Z,40.92
2022-12-28T03:31:37.166Z,45.42
2022-12-28T03:33:04.367Z,49.42
2022-12-28T03:34:26.516Z,58.60
2022-12-28T03:36:12.620Z,47.95
2022-12-28T03:37:52.588Z,38.92
2022-12-28T03:39:14.340Z,38.63
2022-12-28T03:40:44.508Z,34.10
2022-12-28T03:42:40.503Z,37.10
2022-12-28T03:44:23.433Z,31.58
2022-12-28T03:46:01.417Z,21.38
2022-12-28T03:47:27.741Z,26.27
2022-12-28T03:48:51.299Z,23.05
2022-12-28T03:50:14.253Z,22.70
2022-12-28T03:51:36.669Z,25.63
2022-12-28T03:54:28.852Z,23.65
2022-12-28T03:55:51.307Z,24.13
2022-12-28T03:57:17.043Z,21.92
2022-12-28T03:58:40.701Z,26.10
2022-12-28T04:00:03.979Z,35.53
2022-12-28T04:01:37.679Z,46.42
2022-12-28T04:02:59.702Z,58.30
2022-12-28T04:04:21.740Z,56.55
2022-12-28T04:05:44.891Z,61.53
2022-12-28T04:07:06.697Z,54.58
2022-12-28T04:08:29.215Z,56.60
2022-12-28T04:09:52.306Z,47.47
2022-12-28T04:11:14.859Z,44.30
2022-12-28T04:12:40.092Z,38.50
2022-12-28T04:14:18.636Z,61.53
2022-12-28T04:15:40.837Z,71.82
2022-12-28T04:17:02.671Z,76.53
2022-12-28T04:18:25.521Z,65.43
2022-12-28T04:19:47.408Z,62.00
2022-12-28T04:21:11.320Z,60.38
2022-12-28T04:22:35.079Z,61.30
2022-12-28T04:23:56.889Z,61.40
2022-12-28T04:25:19.067Z,64.07
2022-12-28T04:26:40.818Z,56.78
2022-12-28T04:28:04.264Z,57.05
2022-12-28T04:29:55.021Z,58.75
2022-12-28T04:31:18.506Z,57.78
2022-12-28T04:32:46.806Z,59.28
2022-12-28T04:34:08.832Z,62.38
2022-12-28T04:35:34.402Z,57.90
2022-12-28T04:36:56.221Z,62.08
2022-12-28T04:38:19.017Z,64.72
2022-12-28T04:39:55.891Z,60.95
2022-12-28T04:41:19.018Z,64.55
2022-12-28T04:42:40.895Z,59.75
2022-12-28T04:44:03.127Z,66.07
2022-12-28T04:45:25.041Z,66.18
2022-12-28T04:46:47.146Z,63.28
2022-12-28T04:48:08.972Z,75.53
2022-12-28T04:49:30.983Z,74.53
2022-12-28T04:50:53.639Z,74.75
2022-12-28T04:52:15.298Z,73.32
2022-12-28T04:53:41.635Z,72.35
2022-12-28T04:55:03.573Z,75.97
2022-12-28T04:56:26.847Z,73.43
2022-12-28T04:57:48.521Z,73.18
2022-12-28T04:59:10.571Z,65.63
2022-12-28T05:00:32.571Z,61.13
2022-12-28T05:01:54.424Z,75.07
2022-12-28T05:03:16.445Z,77.13
2022-12-28T05:04:38.281Z,75.75
2022-12-28T05:06:02.435Z,67.57
2022-12-28T05:07:23.991Z,73.63
2022-12-28T05:08:46.753Z,67.85
2022-12-28T05:10:09.025Z,79.38
2022-12-28T05:11:32.048Z,55.65
2022-12-28T05:12:55.527Z,46.40
2022-12-28T05:14:17.650Z,55.83
2022-12-28T05:15:39.280Z,57.80
2022-12-28T05:17:01.226Z,50.30
2022-12-28T05:18:23.047Z,45.83
2022-12-28T05:19:44.925Z,61.85
2022-12-28T05:21:06.773Z,60.72
2022-12-28T05:22:29.065Z,60.75
2022-12-28T05:23:52.229Z,63.13
2022-12-28T05:25:13.936Z,66.22
2022-12-28T05:26:36.159Z,64.68
2022-12-28T05:27:57.881Z,64.97
2022-12-28T05:29:19.786Z,62.90
2022-12-28T05:30:41.646Z,66.28
2022-12-28T05:32:03.657Z,63.35
2022-12-28T05:33:25.384Z,64.70
2022-12-28T05:34:47.256Z,61.50
2022-12-28T05:36:21.604Z,64.75
2022-12-28T05:37:43.173Z,62.97
2022-12-28T05:39:05.565Z,67.75
2022-12-28T05:40:27.365Z,71.57
2022-12-28T05:41:49.301Z,89.28
2022-12-28T05:43:11.305Z,103.50
2022-12-28T05:44:33.231Z,112.43
2022-12-28T05:45:59.819Z,102.38
2022-12-28T05:47:21.433Z,108.65
2022-12-28T05:48:43.872Z,117.38
2022-12-28T05:50:06.151Z,128.07
2022-12-28T05:51:32.769Z,117.88
2022-12-28T05:52:54.480Z,141.13
2022-12-28T05:54:16.088Z,149.98
2022-12-28T05:55:38.511Z,144.82
2022-12-28T05:57:00.520Z,138.90
2022-12-28T05:58:22.495Z,140.15
2022-12-28T05:59:44.427Z,141.05
2022-12-28T06:01:10.765Z,154.10
2022-12-28T06:02:32.975Z,183.45
2022-12-28T06:04:01.613Z,209.68
2022-12-28T06:05:23.407Z,224.80
2022-12-28T06:06:47.284Z,233.57
2022-12-28T06:08:08.923Z,232.65
2022-12-28T06:09:30.995Z,252.90
2022-12-28T06:10:52.896Z,248.18
2022-12-28T06:12:14.509Z,255.48
2022-12-28T06:13:37.908Z,278.13
2022-12-28T06:15:00.002Z,273.67
2022-12-28T06:16:22.696Z,270.10
2022-12-28T06:17:44.404Z,255.75
2022-12-28T06:19:11.145Z,277.65
2022-12-28T06:20:33.099Z,298.77
2022-12-28T06:21:54.990Z,309.17
2022-12-28T06:23:16.827Z,295.30
2022-12-28T06:24:38.673Z,265.73
2022-12-28T06:26:02.027Z,256.83
2022-12-28T06:27:23.556Z,258.85
2022-12-28T06:28:46.540Z,279.55
2022-12-28T06:30:09.430Z,283.25
2022-12-28T06:31:33.889Z,245.73
2022-12-28T06:32:57.414Z,273.02
2022-12-28T06:34:19.238Z,291.48
2022-12-28T06:35:44.011Z,300.80
2022-12-28T06:37:05.963Z,293.00
2022-12-28T06:38:29.694Z,306.95
2022-12-28T06:39:51.404Z,288.65
2022-12-28T06:41:15.107Z,282.55
2022-12-28T06:42:37.264Z,332.77
2022-12-28T06:43:59.591Z,329.38
2022-12-28T06:45:21.597Z,324.95
2022-12-28T06:46:43.339Z,347.48
2022-12-28T06:48:05.337Z,350.77
2022-12-28T06:49:27.925Z,373.55
2022-12-28T06:50:59.877Z,391.35
2022-12-28T06:52:21.943Z,403.63
2022-12-28T06:53:44.987Z,367.20
2022-12-28T06:55:06.981Z,324.58
2022-12-28T06:56:32.040Z,332.48
2022-12-28T06:57:54.568Z,325.52
2022-12-28T06:59:16.274Z,314.42
2022-12-28T07:00:38.011Z,305.95
2022-12-28T07:02:00.089Z,264.23
2022-12-28T07:03:23.108Z,244.88
2022-12-28T07:04:44.844Z,165.15
2022-12-28T07:06:06.921Z,139.52
2022-12-28T07:07:29.077Z,121.97
2022-12-28T07:08:51.788Z,136.10
2022-12-28T07:10:13.831Z,125.65
2022-12-28T07:11:36.009Z,104.90
2022-12-28T07:12:58.010Z,77.93
2022-12-28T07:14:20.961Z,76.78
2022-12-28T07:15:42.599Z,61.03
2022-12-28T07:17:04.591Z,78.78
2022-12-28T07:18:26.161Z,72.03
2022-12-28T07:19:48.125Z,38.28
2022-12-28T07:21:21.536Z,30.40
2022-12-28T07:22:43.417Z,37.30
2022-12-28T07:24:06.723Z,41.92
2022-12-28T07:25:28.651Z,46.20
2022-12-28T07:26:50.604Z,75.85
2022-12-28T07:28:12.288Z,68.20
2022-12-28T07:29:34.199Z,48.88
2022-12-28T07:30:56.119Z,61.33
2022-12-28T07:32:18.045Z,50.13
2022-12-28T07:33:40.655Z,64.22
2022-12-28T07:35:02.463Z,54.47
2022-12-28T07:36:26.401Z,59.13
2022-12-28T07:37:49.834Z,67.45
2022-12-28T07:39:11.682Z,67.82
2022-12-28T07:40:33.661Z,63.85
2022-12-28T07:41:55.346Z,63.72
2022-12-28T07:43:17.293Z,64.97
2022-12-28T07:44:48.672Z,75.35
2022-12-28T07:46:12.426Z,63.45
2022-12-28T07:47:34.268Z,61.92
2022-12-28T07:49:00.637Z,81.80
2022-12-28T07:50:22.066Z,58.13
2022-12-28T07:51:43.916Z,50.20
2022-12-28T07:53:05.959Z,86.80
2022-12-28T07:54:27.930Z,48.72
2022-12-28T07:56:00.832Z,47.53
2022-12-28T07:57:23.016Z,61.47
2022-12-28T07:58:52.715Z,67.45
2022-12-28T08:00:15.236Z,59.88
2022-12-28T08:01:37.568Z,66.45
2022-12-28T08:02:59.593Z,63.60
2022-12-28T08:04:21.480Z,62.60
2022-12-28T08:05:43.589Z,59.20
2022-12-28T08:07:05.197Z,66.68
2022-12-28T08:08:27.085Z,79.10
2022-12-28T08:09:48.593Z,78.35
2022-12-28T08:11:13.564Z,85.85
2022-12-28T08:12:35.437Z,81.18
2022-12-28T08:13:58.361Z,79.07
2022-12-28T08:15:20.153Z,102.07
2022-12-28T08:16:44.406Z,101.65
2022-12-28T08:18:06.498Z,109.68
2022-12-28T08:19:28.465Z,107.68
2022-12-28T08:20:50.239Z,100.97
2022-12-28T08:22:12.133Z,105.53
2022-12-28T08:23:34.477Z,89.95
2022-12-28T08:24:56.288Z,85.32
2022-12-28T08:26:23.477Z,98.38
2022-12-28T08:27:45.075Z,86.38
2022-12-28T08:29:10.632Z,89.90
2022-12-28T08:30:32.577Z,127.30
2022-12-28T08:31:54.502Z,104.60
2022-12-28T08:33:16.524Z,123.35
2022-12-28T08:34:38.405Z,149.43
2022-12-28T08:36:00.230Z,154.00
2022-12-28T08:37:22.249Z,166.98
2022-12-28T08:38:45.550Z,196.43
2022-12-28T08:40:07.680Z,150.23
2022-12-28T08:41:30.541Z,139.55
2022-12-28T08:42:52.359Z,159.95
2022-12-28T08:44:14.566Z,165.88
2022-12-28T08:45:36.240Z,158.85
2022-12-28T08:46:58.471Z,155.88
2022-12-28T08:48:20.209Z,149.75
2022-12-28T08:49:44.492Z,152.43
2022-12-28T08:51:15.354Z,179.90
2022-12-28T08:52:37.260Z,198.43
2022-12-28T08:54:00.173Z,145.40
2022-12-28T08:55:22.336Z,135.57
2022-12-28T08:56:45.459Z,143.90
2022-12-28T08:58:07.302Z,135.60
2022-12-28T08:59:29.275Z,138.38
2022-12-28T09:00:51.162Z,138.25
2022-12-28T09:02:14.663Z,136.00
2022-12-28T09:03:38.749Z,136.07
2022-12-28T09:05:00.660Z,133.82
2022-12-28T09:06:29.976Z,124.97
2022-12-28T09:07:59.314Z,126.78
2022-12-28T09:09:22.067Z,120.35
2022-12-28T09:10:43.788Z,108.72
2022-12-28T09:12:07.398Z,100.05
2022-12-28T09:13:29.327Z,88.70
2022-12-28T09:14:51.243Z,88.68
2022-12-28T09:16:16.565Z,88.45
2022-12-28T09:17:38.485Z,89.95
2022-12-28T09:19:02.747Z,85.40
2022-12-28T09:20:24.834Z,87.63
2022-12-28T09:21:49.247Z,93.82
2022-12-28T09:23:11.290Z,86.00
2022-12-28T09:24:33.282Z,85.75
2022-12-28T09:25:55.424Z,100.47
2022-12-28T09:27:17.266Z,115.80
2022-12-28T09:28:40.019Z,111.55
2022-12-28T09:30:03.476Z,105.70
2022-12-28T09:31:27.998Z,115.28
2022-12-28T09:33:09.706Z,111.35
2022-12-28T09:34:37.188Z,105.80
2022-12-28T09:35:59.950Z,122.97
2022-12-28T09:37:21.688Z,122.38
2022-12-28T09:38:44.330Z,114.82
2022-12-28T09:40:06.957Z,140.95
2022-12-28T09:41:40.683Z,160.73
2022-12-28T09:43:02.589Z,161.63
2022-12-28T09:44:42.835Z,205.00
2022-12-28T09:46:04.496Z,206.68
2022-12-28T09:47:32.345Z,180.25
2022-12-28T09:48:57.523Z,168.07
2022-12-28T09:50:19.254Z,172.73
2022-12-28T09:51:57.268Z,202.15
2022-12-28T09:53:23.697Z,226.85
2022-12-28T09:54:45.719Z,187.75
2022-12-28T09:56:28.930Z,192.48
2022-12-28T09:57:56.837Z,224.95
2022-12-28T09:59:25.109Z,286.08
2022-12-28T10:00:56.594Z,210.50
2022-12-28T10:02:26.122Z,166.35
2022-12-28T10:05:12.727Z,153.88
2022-12-28T10:06:36.824Z,152.60
2022-12-28T10:08:00.128Z,159.23
2022-12-28T10:09:33.342Z,162.13
2022-12-28T10:10:59.566Z,167.50
2022-12-28T10:12:24.694Z,181.15
2022-12-28T10:13:56.538Z,205.85
2022-12-28T10:15:19.457Z,213.45
2022-12-28T10:16:46.955Z,209.85
2022-12-28T10:18:14.050Z,147.05
2022-12-28T10:19:35.650Z,124.90
2022-12-28T10:20:57.911Z,101.30
2022-12-28T10:22:22.548Z,88.45
2022-12-28T10:24:20.773Z,84.15
2022-12-28T10:25:28.761Z,95.78
2022-12-28T10:26:50.585Z,70.25
2022-12-28T10:28:13.023Z,69.72
2022-12-28T10:29:35.342Z,70.85
2022-12-28T10:31:06.750Z,172.55
2022-12-28T10:32:48.843Z,318.05
2022-12-28T10:34:20.962Z,267.60
2022-12-28T10:35:49.527Z,143.05
2022-12-28T10:37:19.124Z,158.93
2022-12-28T10:38:47.522Z,96.15
2022-12-28T10:40:30.682Z,128.05
2022-12-28T10:41:53.604Z,117.05
2022-12-28T10:43:22.651Z,115.32
2022-12-28T10:44:48.747Z,98.20
2022-12-28T10:48:02.798Z,98.63
2022-12-28T10:49:25.902Z,102.60
2022-12-28T10:50:56.721Z,107.72
2022-12-28T10:52:20.388Z,106.53
2022-12-28T10:53:46.873Z,102.20
2022-12-28T10:55:29.820Z,100.45
2022-12-28T10:56:52.115Z,119.10
2022-12-28T10:58:29.151Z,188.95
2022-12-28T10:59:52.203Z,190.07
2022-12-28T11:01:14.070Z,166.95
2022-12-28T11:02:36.102Z,149.40
2022-12-28T11:03:21.303Z,99.97
2022-12-28T11:04:00.007Z,115.63
2022-12-28T11:05:24.156Z,102.07
2022-12-28T11:07:06.310Z,83.05
2022-12-28T11:08:28.060Z,75.93
2022-12-28T11:09:50.950Z,73.35
2022-12-28T11:11:22.026Z,69.55
2022-12-28T11:12:45.605Z,71.72
2022-12-28T11:14:37.691Z,78.57
2022-12-28T11:16:00.396Z,87.63
2022-12-28T11:17:28.335Z,92.38
2022-12-28T11:18:50.672Z,85.88
2022-12-28T11:20:24.862Z,87.28
2022-12-28T11:21:47.244Z,86.63
2022-12-28T11:23:15.667Z,92.45
2022-12-28T11:24:39.694Z,104.70
2022-12-28T11:26:01.742Z,115.97
2022-12-28T11:27:24.727Z,104.00
2022-12-28T11:28:51.599Z,112.70
2022-12-28T11:30:19.265Z,111.60
2022-12-28T11:31:52.414Z,126.05
2022-12-28T11:33:43.271Z,145.60
2022-12-28T11:35:06.413Z,145.00
2022-12-28T11:36:30.611Z,169.75
2022-12-28T11:38:04.237Z,183.80
2022-12-28T11:39:26.184Z,170.00
2022-12-28T11:40:52.685Z,192.43
2022-12-28T11:42:39.450Z,242.50
2022-12-28T11:44:04.638Z,244.88
2022-12-28T11:45:53.030Z,182.20
2022-12-28T11:47:18.160Z,169.63
2022-12-28T11:48:43.062Z,169.93
2022-12-28T11:50:36.795Z,171.07
2022-12-28T11:52:16.798Z,183.38
2022-12-28T11:53:44.872Z,157.65
2022-12-28T11:55:39.914Z,161.85
2022-12-28T11:57:01.600Z,142.70
2022-12-28T11:58:29.809Z,145.32
2022-12-28T11:59:51.572Z,148.85
2022-12-28T12:01:33.640Z,120.78
2022-12-28T12:03:01.001Z,124.22
2022-12-28T12:04:34.182Z,120.43
2022-12-28T12:05:56.064Z,126.45
2022-12-28T12:07:30.637Z,113.38
2022-12-28T12:08:54.087Z,90.38
2022-12-28T12:10:30.223Z,84.07
2022-12-28T12:11:55.735Z,96.75
2022-12-28T12:13:26.811Z,113.93
2022-12-28T12:15:02.025Z,107.78
2022-12-28T12:16:32.972Z,104.97
2022-12-28T12:18:14.943Z,99.47
2022-12-28T12:19:43.416Z,91.32
2022-12-28T12:21:15.607Z,85.95
2022-12-28T12:22:52.224Z,74.63
2022-12-28T12:24:29.435Z,67.32
2022-12-28T12:25:54.457Z,67.20
2022-12-28T12:27:36.808Z,65.60
2022-12-28T12:29:06.516Z,63.63
2022-12-28T12:30:31.503Z,63.05
2022-12-28T12:32:06.432Z,58.90
2022-12-28T12:33:35.668Z,62.05
2022-12-28T12:35:04.851Z,62.33
2022-12-28T12:37:03.844Z,136.63
2022-12-28T12:38:48.667Z,252.45
2022-12-28T12:40:10.560Z,97.82
2022-12-28T12:41:58.105Z,167.70
2022-12-28T12:43:35.888Z,88.75
2022-12-28T12:45:00.148Z,68.68
2022-12-28T12:46:59.286Z,549.90
2022-12-28T12:48:56.592Z,318.67
2022-12-28T12:50:32.840Z,433.95
2022-12-28T12:52:31.866Z,157.27
2022-12-28T12:54:15.309Z,77.15
2022-12-28T12:55:49.593Z,65.18
2022-12-28T12:57:34.377Z,68.97
2022-12-28T12:59:43.451Z,56.47
2022-12-28T13:01:19.717Z,57.05
2022-12-28T13:03:18.061Z,55.45
2022-12-28T13:04:46.165Z,52.08
2022-12-28T13:06:13.529Z,66.72
2022-12-28T13:07:35.492Z,62.92
2022-12-28T13:09:05.278Z,102.85
2022-12-28T13:10:33.683Z,70.32
2022-12-28T13:11:55.970Z,61.60
2022-12-28T13:13:34.618Z,63.88
2022-12-28T13:15:09.127Z,73.65
2022-12-28T13:16:34.778Z,66.32
2022-12-28T13:18:42.951Z,75.57
2022-12-28T13:19:47.754Z,91.82
2022-12-28T13:21:20.724Z,95.63
2022-12-28T13:22:45.557Z,100.75
2022-12-28T13:24:27.261Z,104.22
2022-12-28T13:25:52.846Z,94.50
2022-12-28T13:27:20.514Z,80.15
2022-12-28T13:28:55.853Z,52.42
2022-12-28T13:30:22.939Z,51.53
2022-12-28T13:31:49.700Z,42.10
2022-12-28T13:33:22.355Z,51.35
2022-12-28T13:34:50.875Z,66.20
2022-12-28T13:36:18.222Z,66.95
2022-12-28T13:37:40.099Z,72.97
2022-12-28T13:39:12.242Z,77.30
2022-12-28T13:40:35.295Z,59.33
2022-12-28T13:42:05.883Z,58.65
2022-12-28T13:43:46.403Z,57.75
2022-12-28T13:45:14.351Z,49.45
2022-12-28T13:46:39.355Z,47.90
2022-12-28T13:48:02.280Z,41.70
2022-12-28T13:49:25.569Z,56.53
2022-12-28T13:50:47.828Z,59.72
2022-12-28T13:52:14.876Z,75.38
2022-12-28T13:53:36.979Z,85.80
2022-12-28T13:55:04.630Z,99.25
2022-12-28T13:56:28.219Z,100.32
2022-12-28T13:57:59.526Z,100.10
2022-12-28T13:59:22.418Z,133.85
2022-12-28T14:00:47.378Z,136.05
2022-12-28T14:02:16.184Z,130.48
2022-12-28T14:03:44.605Z,122.72
2022-12-28T14:05:15.415Z,130.32
2022-12-28T14:06:37.331Z,134.52
2022-12-28T14:08:00.793Z,133.00
2022-12-28T14:09:23.472Z,132.82
2022-12-28T14:10:47.864Z,131.55
2022-12-28T14:12:11.737Z,130.93
2022-12-28T14:13:35.104Z,206.65
2022-12-28T14:14:58.301Z,173.18
2022-12-28T14:16:20.239Z,171.52
2022-12-28T14:17:43.637Z,190.95
2022-12-28T14:19:07.639Z,210.23
2022-12-28T14:20:29.552Z,211.80
2022-12-28T14:21:51.562Z,126.70
2022-12-28T14:23:25.082Z,119.75
2022-12-28T14:25:00.152Z,97.20
2022-12-28T14:26:24.306Z,81.60
2022-12-28T14:27:57.182Z,65.15
2022-12-28T14:29:32.802Z,151.93
2022-12-28T14:30:55.876Z,312.95
2022-12-28T14:32:18.460Z,179.23
2022-12-28T14:33:59.304Z,268.45
2022-12-28T14:35:27.210Z,312.15
2022-12-28T14:36:51.540Z,167.15
2022-12-28T14:38:19.665Z,144.60
2022-12-28T14:39:45.485Z,74.30
2022-12-28T14:41:07.483Z,89.40
2022-12-28T14:42:30.257Z,77.65
2022-12-28T14:44:01.086Z,85.95
2022-12-28T14:46:07.252Z,80.45
2022-12-28T14:47:46.939Z,74.38
2022-12-28T14:50:59.398Z,87.60
2022-12-28T14:52:21.041Z,114.25
2022-12-28T14:53:43.851Z,109.15
2022-12-28T14:55:22.059Z,103.07
2022-12-28T14:56:46.825Z,99.82
2022-12-28T14:58:19.767Z,103.20
2022-12-28T14:59:47.944Z,97.28
2022-12-28T15:01:10.047Z,97.40
2022-12-28T15:02:41.249Z,91.05
2022-12-28T15:04:05.119Z,171.10
2022-12-28T15:05:43.964Z,212.75
2022-12-28T15:07:10.468Z,217.15
2022-12-28T15:08:32.471Z,238.45
2022-12-28T15:09:54.518Z,248.77
2022-12-28T15:11:19.308Z,282.38
2022-12-28T15:12:40.879Z,280.73
2022-12-28T15:14:03.155Z,299.83
2022-12-28T15:15:25.014Z,294.73
2022-12-28T15:16:47.103Z,281.65
2022-12-28T15:18:08.973Z,267.85
2022-12-28T15:19:30.592Z,243.90
2022-12-28T15:20:52.961Z,227.88
2022-12-28T15:22:15.009Z,231.07
2022-12-28T15:23:36.800Z,229.88
2022-12-28T15:24:58.785Z,208.90
2022-12-28T15:26:23.433Z,195.88
2022-12-28T15:27:48.867Z,200.13
2022-12-28T15:29:10.655Z,185.85
2022-12-28T15:30:32.550Z,219.80
2022-12-28T15:31:54.396Z,225.95
2022-12-28T15:33:17.309Z,288.90
2022-12-28T15:34:38.972Z,398.25
2022-12-28T15:36:16.767Z,339.60
2022-12-28T15:37:39.745Z,292.85
2022-12-28T15:39:02.688Z,267.05
2022-12-28T15:40:24.289Z,256.85
2022-12-28T15:41:46.156Z,259.58
2022-12-28T15:43:08.016Z,249.63
2022-12-28T15:44:30.243Z,281.10
2022-12-28T15:45:59.637Z,283.80
2022-12-28T15:47:22.227Z,272.85
2022-12-28T15:48:47.530Z,270.70
2022-12-28T15:50:10.225Z,259.38
2022-12-28T15:51:32.284Z,249.65
2022-12-28T15:52:54.191Z,251.23
2022-12-28T15:54:15.867Z,236.73
2022-12-28T15:55:37.775Z,237.68
2022-12-28T15:56:59.604Z,230.20
2022-12-28T15:58:21.464Z,233.70
2022-12-28T15:59:43.266Z,240.85
2022-12-28T16:01:05.249Z,266.33
2022-12-28T16:02:30.126Z,323.67
2022-12-28T16:03:53.699Z,374.90
2022-12-28T16:05:15.434Z,383.60
2022-12-28T16:06:43.922Z,471.27
2022-12-28T16:08:06.375Z,433.95
2022-12-28T16:09:28.357Z,415.30
2022-12-28T16:10:50.533Z,336.15
2022-12-28T16:12:17.388Z,226.65
2022-12-28T16:13:39.870Z,206.02
2022-12-28T16:15:01.804Z,177.27
2022-12-28T16:16:24.289Z,190.57
2022-12-28T16:17:53.281Z,202.50
2022-12-28T16:19:19.149Z,201.65
2022-12-28T16:20:40.938Z,224.52
2022-12-28T16:22:02.688Z,236.73
2022-12-28T16:23:24.608Z,241.63
2022-12-28T16:24:46.668Z,271.88
2022-12-28T16:26:09.417Z,392.73
2022-12-28T16:27:30.982Z,402.33
2022-12-28T16:28:53.034Z,370.48
2022-12-28T16:30:15.145Z,389.40
2022-12-28T16:31:38.829Z,349.33
2022-12-28T16:33:00.767Z,363.73
2022-12-28T16:34:23.042Z,373.23
2022-12-28T16:35:46.382Z,404.63
2022-12-28T16:37:10.154Z,436.05
2022-12-28T16:38:31.777Z,429.65
2022-12-28T16:39:53.865Z,475.80
2022-12-28T16:41:15.922Z,495.02
2022-12-28T16:42:37.846Z,626.20
2022-12-28T16:44:05.635Z,657.22
2022-12-28T16:45:27.865Z,714.53
2022-12-28T16:46:50.123Z,603.17
2022-12-28T16:48:15.211Z,560.83
2022-12-28T16:49:40.596Z,470.50
2022-12-28T16:51:02.999Z,398.70
2022-12-28T16:52:24.925Z,341.20
2022-12-28T16:53:46.821Z,278.42
2022-12-28T16:55:08.895Z,265.42
2022-12-28T16:56:31.154Z,242.80
2022-12-28T16:57:52.864Z,237.18
2022-12-28T16:59:26.614Z,249.18
2022-12-28T17:00:48.668Z,262.55
2022-12-28T17:02:13.271Z,231.25
2022-12-28T17:03:36.711Z,187.30
2022-12-28T17:04:58.487Z,182.85
2022-12-28T17:06:20.428Z,170.38
2022-12-28T17:07:42.651Z,189.82
2022-12-28T17:09:05.138Z,194.27
2022-12-28T17:10:28.330Z,183.50
2022-12-28T17:11:50.895Z,195.65
2022-12-28T17:13:12.894Z,201.70
2022-12-28T17:14:38.233Z,164.63
2022-12-28T17:16:03.274Z,150.18
2022-12-28T17:17:25.381Z,135.55
2022-12-28T17:18:46.987Z,107.60
2022-12-28T17:20:09.430Z,107.00
2022-12-28T17:21:32.873Z,90.22
2022-12-28T17:22:54.663Z,93.72
2022-12-28T17:24:16.735Z,85.28
2022-12-28T17:25:38.633Z,95.97
2022-12-28T17:27:07.241Z,98.72
2022-12-28T17:29:52.210Z,73.63
2022-12-28T17:31:16.836Z,68.47
2022-12-28T17:32:39.774Z,60.20
2022-12-28T17:34:03.057Z,59.10
2022-12-28T17:35:24.872Z,63.35
2022-12-28T17:36:46.539Z,72.40
2022-12-28T17:38:08.566Z,73.30
2022-12-28T17:39:35.998Z,77.53
2022-12-28T17:41:06.765Z,70.30
2022-12-28T17:42:28.397Z,68.18
2022-12-28T17:43:56.064Z,70.10
2022-12-28T17:45:18.091Z,118.35
2022-12-28T17:46:42.749Z,118.07
2022-12-28T17:48:04.969Z,140.23
2022-12-28T17:49:27.128Z,147.80
2022-12-28T17:50:48.701Z,144.52
2022-12-28T17:52:10.704Z,144.15
2022-12-28T17:53:32.641Z,148.80
2022-12-28T17:54:54.873Z,138.65
2022-12-28T17:56:17.421Z,155.88
2022-12-28T17:57:39.285Z,168.70
2022-12-28T17:59:01.292Z,202.90
2022-12-28T18:00:23.376Z,285.38
2022-12-28T18:01:45.371Z,180.73
2022-12-28T18:03:07.368Z,184.20
2022-12-28T18:04:28.967Z,187.13
2022-12-28T18:05:52.191Z,182.45
2022-12-28T18:07:13.817Z,180.27
2022-12-28T18:08:35.754Z,177.65
2022-12-28T18:09:57.445Z,168.68
2022-12-28T18:11:19.569Z,170.20
2022-12-28T18:12:41.301Z,172.77
2022-12-28T18:14:03.210Z,159.82
2022-12-28T18:15:28.504Z,161.13
2022-12-28T18:16:55.805Z,160.80
2022-12-28T18:18:18.737Z,169.30
2022-12-28T18:19:40.857Z,171.30
2022-12-28T18:21:06.469Z,193.52
2022-12-28T18:22:28.679Z,192.43